sensor_id;sensor_type;location;lat;lon;timestamp;temperature;humidity
12315;DHT22;23886;46.614;14.276;2023-03-05T00:02:05;-0.70;99.90
12315;DHT22;23886;46.614;14.276;2023-03-05T00:04:32;-0.70;99.90
12315;DHT22;23886;46.614;14.276;2023-03-05T00:06:59;-0.70;99.90
12315;DHT22;23886;46.614;14.276;2023-03-05T00:09:26;-0.70;99.90
12315;DHT22;23886;46.614;14.276;2023-03-05T00:11:53;-0.70;99.90
12315;DHT22;23886;46.614;14.276;2023-03-05T00:14:21;-0.80;99.90
12315;DHT22;23886;46.614;14.276;2023-03-05T00:16:48;-0.70;99.90
12315;DHT22;23886;46.614;14.276;2023-03-05T00:19:15;-0.90;99.90
12315;DHT22;23886;46.614;14.276;2023-03-05T00:21:42;-0.90;99.90
12315;DHT22;23886;46.614;14.276;2023-03-05T00:24:12;-0.90;99.90
12315;DHT22;23886;46.614;14.276;2023-03-05T00:26:40;-0.70;99.90
12315;DHT22;23886;46.614;14.276;2023-03-05T00:29:07;-0.60;99.90
12315;DHT22;23886;46.614;14.276;2023-03-05T00:31:36;-0.50;99.90
12315;DHT22;23886;46.614;14.276;2023-03-05T00:34:06;-0.60;99.90
12315;DHT22;23886;46.614;14.276;2023-03-05T00:36:33;-0.80;99.90
12315;DHT22;23886;46.614;14.276;2023-03-05T00:39:00;-0.90;99.90
12315;DHT22;23886;46.614;14.276;2023-03-05T00:41:27;-1.00;99.90
12315;DHT22;23886;46.614;14.276;2023-03-05T00:43:54;-1.00;99.90
12315;DHT22;23886;46.614;14.276;2023-03-05T00:46:21;-1.00;99.90
12315;DHT22;23886;46.614;14.276;2023-03-05T00:48:50;-1.00;99.90
12315;DHT22;23886;46.614;14.276;2023-03-05T00:51:17;-1.00;99.90
12315;DHT22;23886;46.614;14.276;2023-03-05T00:53:44;-0.90;99.90
12315;DHT22;23886;46.614;14.276;2023-03-05T00:56:11;-1.00;99.90
12315;DHT22;23886;46.614;14.276;2023-03-05T00:58:38;-0.90;99.90
12315;DHT22;23886;46.614;14.276;2023-03-05T01:01:06;-1.10;99.90
12315;DHT22;23886;46.614;14.276;2023-03-05T01:03:33;-1.20;99.90
12315;DHT22;23886;46.614;14.276;2023-03-05T01:06:04;-1.20;99.90
12315;DHT22;23886;46.614;14.276;2023-03-05T01:08:33;-1.20;99.90
12315;DHT22;23886;46.614;14.276;2023-03-05T01:11:01;-1.20;99.90
12315;DHT22;23886;46.614;14.276;2023-03-05T01:13:28;-1.20;99.90
12315;DHT22;23886;46.614;14.276;2023-03-05T01:15:55;-1.20;99.90
12315;DHT22;23886;46.614;14.276;2023-03-05T01:18:22;-1.20;99.90
12315;DHT22;23886;46.614;14.276;2023-03-05T01:20:49;-1.40;99.90
12315;DHT22;23886;46.614;14.276;2023-03-05T01:23:17;-1.40;99.90
12315;DHT22;23886;46.614;14.276;2023-03-05T01:25:45;-1.40;99.90
12315;DHT22;23886;46.614;14.276;2023-03-05T01:28:12;-1.40;99.90
12315;DHT22;23886;46.614;14.276;2023-03-05T01:30:39;-1.40;99.90
12315;DHT22;23886;46.614;14.276;2023-03-05T01:33:06;-1.40;99.90
12315;DHT22;23886;46.614;14.276;2023-03-05T01:35:33;-1.40;99.90
12315;DHT22;23886;46.614;14.276;2023-03-05T01:38:00;-1.50;99.90
12315;DHT22;23886;46.614;14.276;2023-03-05T01:40:29;-1.50;99.90
12315;DHT22;23886;46.614;14.276;2023-03-05T01:42:59;-1.40;99.90
12315;DHT22;23886;46.614;14.276;2023-03-05T01:45:29;-1.40;99.90
12315;DHT22;23886;46.614;14.276;2023-03-05T01:47:57;-1.40;99.90
12315;DHT22;23886;46.614;14.276;2023-03-05T01:50:25;-1.50;99.90
12315;DHT22;23886;46.614;14.276;2023-03-05T01:52:56;-1.50;99.90
12315;DHT22;23886;46.614;14.276;2023-03-05T01:55:25;-1.50;99.90
12315;DHT22;23886;46.614;14.276;2023-03-05T01:57:58;-1.60;99.90
12315;DHT22;23886;46.614;14.276;2023-03-05T02:00:28;-1.50;99.90
12315;DHT22;23886;46.614;14.276;2023-03-05T02:02:56;-1.50;99.90
12315;DHT22;23886;46.614;14.276;2023-03-05T02:05:30;-1.50;99.90
12315;DHT22;23886;46.614;14.276;2023-03-05T02:07:59;-1.40;99.90
12315;DHT22;23886;46.614;14.276;2023-03-05T02:10:28;-1.40;99.90
12315;DHT22;23886;46.614;14.276;2023-03-05T02:13:01;-1.40;99.90
12315;DHT22;23886;46.614;14.276;2023-03-05T02:15:31;-1.30;99.90
12315;DHT22;23886;46.614;14.276;2023-03-05T02:17:59;-1.30;99.90
12315;DHT22;23886;46.614;14.276;2023-03-05T02:20:28;-1.40;99.90
12315;DHT22;23886;46.614;14.276;2023-03-05T02:22:57;-1.50;99.90
12315;DHT22;23886;46.614;14.276;2023-03-05T02:25:26;-1.60;99.90
12315;DHT22;23886;46.614;14.276;2023-03-05T02:27:57;-1.50;99.90
12315;DHT22;23886;46.614;14.276;2023-03-05T02:30:26;-1.40;99.90
12315;DHT22;23886;46.614;14.276;2023-03-05T02:32:54;-1.40;99.90
12315;DHT22;23886;46.614;14.276;2023-03-05T02:35:21;-1.40;99.90
12315;DHT22;23886;46.614;14.276;2023-03-05T02:37:48;-1.60;99.90
12315;DHT22;23886;46.614;14.276;2023-03-05T02:40:17;-1.80;99.90
12315;DHT22;23886;46.614;14.276;2023-03-05T02:42:45;-1.70;99.90
12315;DHT22;23886;46.614;14.276;2023-03-05T02:45:12;-1.60;99.90
12315;DHT22;23886;46.614;14.276;2023-03-05T02:47:39;-1.70;99.90
12315;DHT22;23886;46.614;14.276;2023-03-05T02:50:08;-1.60;99.90
12315;DHT22;23886;46.614;14.276;2023-03-05T02:52:35;-1.60;99.90
12315;DHT22;23886;46.614;14.276;2023-03-05T02:55:03;-1.50;99.90
12315;DHT22;23886;46.614;14.276;2023-03-05T02:57:31;-1.60;99.90
12315;DHT22;23886;46.614;14.276;2023-03-05T02:59:58;-1.70;99.90
12315;DHT22;23886;46.614;14.276;2023-03-05T03:02:25;-1.80;99.90
12315;DHT22;23886;46.614;14.276;2023-03-05T03:04:54;-1.70;99.90
12315;DHT22;23886;46.614;14.276;2023-03-05T03:07:21;-1.70;99.90
12315;DHT22;23886;46.614;14.276;2023-03-05T03:09:48;-1.60;99.90
12315;DHT22;23886;46.614;14.276;2023-03-05T03:12:15;-1.80;99.90
12315;DHT22;23886;46.614;14.276;2023-03-05T03:14:43;-1.80;99.90
12315;DHT22;23886;46.614;14.276;2023-03-05T03:17:12;-1.90;99.90
12315;DHT22;23886;46.614;14.276;2023-03-05T03:19:40;-2.00;99.90
12315;DHT22;23886;46.614;14.276;2023-03-05T03:22:08;-2.00;99.90
12315;DHT22;23886;46.614;14.276;2023-03-05T03:24:36;-1.90;99.90
12315;DHT22;23886;46.614;14.276;2023-03-05T03:27:03;-1.90;99.90
12315;DHT22;23886;46.614;14.276;2023-03-05T03:29:30;-2.00;99.90
12315;DHT22;23886;46.614;14.276;2023-03-05T03:31:59;-2.00;99.90
12315;DHT22;23886;46.614;14.276;2023-03-05T03:34:26;-2.00;99.90
12315;DHT22;23886;46.614;14.276;2023-03-05T03:36:53;-2.10;99.90
12315;DHT22;23886;46.614;14.276;2023-03-05T03:39:21;-2.20;99.90
12315;DHT22;23886;46.614;14.276;2023-03-05T03:41:50;-2.10;99.90
12315;DHT22;23886;46.614;14.276;2023-03-05T03:44:18;-2.00;99.90
12315;DHT22;23886;46.614;14.276;2023-03-05T03:46:46;-2.10;99.90
12315;DHT22;23886;46.614;14.276;2023-03-05T03:49:16;-2.10;99.90
12315;DHT22;23886;46.614;14.276;2023-03-05T03:51:44;-2.00;99.90
12315;DHT22;23886;46.614;14.276;2023-03-05T03:54:13;-2.10;99.90
12315;DHT22;23886;46.614;14.276;2023-03-05T03:56:40;-2.20;99.90
12315;DHT22;23886;46.614;14.276;2023-03-05T03:59:08;-2.20;99.90
12315;DHT22;23886;46.614;14.276;2023-03-05T04:01:35;-2.20;99.90
12315;DHT22;23886;46.614;14.276;2023-03-05T04:04:02;-2.20;99.90
12315;DHT22;23886;46.614;14.276;2023-03-05T04:06:31;-2.20;99.90
12315;DHT22;23886;46.614;14.276;2023-03-05T04:08:58;-2.20;99.90
12315;DHT22;23886;46.614;14.276;2023-03-05T04:11:25;-2.20;99.90
12315;DHT22;23886;46.614;14.276;2023-03-05T04:13:52;-2.20;99.90
12315;DHT22;23886;46.614;14.276;2023-03-05T04:16:20;-2.30;99.90
12315;DHT22;23886;46.614;14.276;2023-03-05T04:18:47;-2.30;99.90
12315;DHT22;23886;46.614;14.276;2023-03-05T04:21:14;-2.40;99.90
12315;DHT22;23886;46.614;14.276;2023-03-05T04:23:42;-2.40;99.90
12315;DHT22;23886;46.614;14.276;2023-03-05T04:26:09;-2.40;99.90
12315;DHT22;23886;46.614;14.276;2023-03-05T04:28:36;-2.40;99.90
12315;DHT22;23886;46.614;14.276;2023-03-05T04:31:04;-2.60;99.90
12315;DHT22;23886;46.614;14.276;2023-03-05T04:33:31;-2.50;99.90
12315;DHT22;23886;46.614;14.276;2023-03-05T04:35:58;-2.50;99.90
12315;DHT22;23886;46.614;14.276;2023-03-05T04:38:25;-2.40;99.90
12315;DHT22;23886;46.614;14.276;2023-03-05T04:40:53;-2.40;99.90
12315;DHT22;23886;46.614;14.276;2023-03-05T04:43:20;-2.40;99.90
12315;DHT22;23886;46.614;14.276;2023-03-05T04:45:47;-2.40;99.90
12315;DHT22;23886;46.614;14.276;2023-03-05T04:48:14;-2.40;99.90
12315;DHT22;23886;46.614;14.276;2023-03-05T04:50:41;-2.30;99.90
12315;DHT22;23886;46.614;14.276;2023-03-05T04:53:08;-2.20;99.90
12315;DHT22;23886;46.614;14.276;2023-03-05T04:55:35;-2.20;99.90
12315;DHT22;23886;46.614;14.276;2023-03-05T04:58:04;-2.30;99.90
12315;DHT22;23886;46.614;14.276;2023-03-05T05:00:31;-2.20;99.90
12315;DHT22;23886;46.614;14.276;2023-03-05T05:02:58;-2.20;99.90
12315;DHT22;23886;46.614;14.276;2023-03-05T05:05:26;-2.30;99.90
12315;DHT22;23886;46.614;14.276;2023-03-05T05:07:54;-2.30;99.90
12315;DHT22;23886;46.614;14.276;2023-03-05T05:10:22;-2.40;99.90
12315;DHT22;23886;46.614;14.276;2023-03-05T05:12:49;-2.40;99.90
12315;DHT22;23886;46.614;14.276;2023-03-05T05:15:17;-2.40;99.90
12315;DHT22;23886;46.614;14.276;2023-03-05T05:17:44;-2.30;99.90
12315;DHT22;23886;46.614;14.276;2023-03-05T05:20:14;-2.20;99.90
12315;DHT22;23886;46.614;14.276;2023-03-05T05:22:42;-2.30;99.90
12315;DHT22;23886;46.614;14.276;2023-03-05T05:25:10;-2.40;99.90
12315;DHT22;23886;46.614;14.276;2023-03-05T05:27:37;-2.50;99.90
12315;DHT22;23886;46.614;14.276;2023-03-05T05:30:05;-2.60;99.90
12315;DHT22;23886;46.614;14.276;2023-03-05T05:32:34;-2.60;99.90
12315;DHT22;23886;46.614;14.276;2023-03-05T05:35:02;-2.60;99.90
12315;DHT22;23886;46.614;14.276;2023-03-05T05:37:29;-2.50;99.90
12315;DHT22;23886;46.614;14.276;2023-03-05T05:39:56;-2.60;99.90
12315;DHT22;23886;46.614;14.276;2023-03-05T05:42:24;-2.60;99.90
12315;DHT22;23886;46.614;14.276;2023-03-05T05:44:51;-2.60;99.90
12315;DHT22;23886;46.614;14.276;2023-03-05T05:47:20;-2.60;99.90
12315;DHT22;23886;46.614;14.276;2023-03-05T05:49:48;-2.50;99.90
12315;DHT22;23886;46.614;14.276;2023-03-05T05:52:15;-2.30;99.90
12315;DHT22;23886;46.614;14.276;2023-03-05T05:54:43;-2.30;99.90
12315;DHT22;23886;46.614;14.276;2023-03-05T05:57:10;-2.20;99.90
12315;DHT22;23886;46.614;14.276;2023-03-05T05:59:37;-2.30;99.90
12315;DHT22;23886;46.614;14.276;2023-03-05T06:02:05;-2.50;99.90
12315;DHT22;23886;46.614;14.276;2023-03-05T06:04:33;-2.50;99.90
12315;DHT22;23886;46.614;14.276;2023-03-05T06:07:03;-2.50;99.90
12315;DHT22;23886;46.614;14.276;2023-03-05T06:09:30;-2.40;99.90
12315;DHT22;23886;46.614;14.276;2023-03-05T06:11:57;-2.50;99.90
12315;DHT22;23886;46.614;14.276;2023-03-05T06:14:24;-2.40;99.90
12315;DHT22;23886;46.614;14.276;2023-03-05T06:16:51;-2.40;99.90
12315;DHT22;23886;46.614;14.276;2023-03-05T06:19:18;-2.20;99.90
12315;DHT22;23886;46.614;14.276;2023-03-05T06:21:45;-2.10;99.90
12315;DHT22;23886;46.614;14.276;2023-03-05T06:24:13;-2.10;99.90
12315;DHT22;23886;46.614;14.276;2023-03-05T06:26:40;-2.20;99.90
12315;DHT22;23886;46.614;14.276;2023-03-05T06:29:07;-2.20;99.90
12315;DHT22;23886;46.614;14.276;2023-03-05T06:31:34;-2.10;99.90
12315;DHT22;23886;46.614;14.276;2023-03-05T06:34:01;-2.00;99.90
12315;DHT22;23886;46.614;14.276;2023-03-05T06:36:28;-1.80;99.90
12315;DHT22;23886;46.614;14.276;2023-03-05T06:38:56;-1.70;99.90
12315;DHT22;23886;46.614;14.276;2023-03-05T06:41:26;-1.50;99.90
12315;DHT22;23886;46.614;14.276;2023-03-05T06:43:54;-1.20;99.90
12315;DHT22;23886;46.614;14.276;2023-03-05T06:46:22;-0.90;99.90
12315;DHT22;23886;46.614;14.276;2023-03-05T06:48:50;-0.90;99.90
12315;DHT22;23886;46.614;14.276;2023-03-05T06:51:19;-0.60;99.90
12315;DHT22;23886;46.614;14.276;2023-03-05T06:53:47;-0.60;99.90
12315;DHT22;23886;46.614;14.276;2023-03-05T06:56:14;-0.80;99.90
12315;DHT22;23886;46.614;14.276;2023-03-05T06:58:44;-0.80;99.90
12315;DHT22;23886;46.614;14.276;2023-03-05T07:01:11;-0.90;99.90
12315;DHT22;23886;46.614;14.276;2023-03-05T07:03:39;-1.00;99.90
12315;DHT22;23886;46.614;14.276;2023-03-05T07:06:07;-1.00;99.90
12315;DHT22;23886;46.614;14.276;2023-03-05T07:08:35;-0.90;99.90
12315;DHT22;23886;46.614;14.276;2023-03-05T07:11:02;-0.80;99.90
12315;DHT22;23886;46.614;14.276;2023-03-05T07:13:29;-0.90;99.90
12315;DHT22;23886;46.614;14.276;2023-03-05T07:15:58;-0.80;99.90
12315;DHT22;23886;46.614;14.276;2023-03-05T07:18:25;-0.50;99.90
12315;DHT22;23886;46.614;14.276;2023-03-05T07:20:52;-0.40;99.90
12315;DHT22;23886;46.614;14.276;2023-03-05T07:23:20;-0.30;99.90
12315;DHT22;23886;46.614;14.276;2023-03-05T07:25:47;-0.60;99.90
12315;DHT22;23886;46.614;14.276;2023-03-05T07:28:14;-0.60;99.90
12315;DHT22;23886;46.614;14.276;2023-03-05T07:30:41;-0.70;99.90
12315;DHT22;23886;46.614;14.276;2023-03-05T07:35:39;-0.80;99.90
12315;DHT22;23886;46.614;14.276;2023-03-05T07:38:07;-0.90;99.90
12315;DHT22;23886;46.614;14.276;2023-03-05T07:40:34;-0.90;99.90
12315;DHT22;23886;46.614;14.276;2023-03-05T07:43:01;-0.80;99.90
12315;DHT22;23886;46.614;14.276;2023-03-05T07:45:28;-0.70;99.90
12315;DHT22;23886;46.614;14.276;2023-03-05T07:47:56;-0.70;99.90
12315;DHT22;23886;46.614;14.276;2023-03-05T07:50:26;-0.60;99.90
12315;DHT22;23886;46.614;14.276;2023-03-05T07:52:53;-0.50;99.90
12315;DHT22;23886;46.614;14.276;2023-03-05T07:55:20;-0.40;99.90
12315;DHT22;23886;46.614;14.276;2023-03-05T07:57:47;-0.20;99.90
12315;DHT22;23886;46.614;14.276;2023-03-05T08:00:14;0.00;99.90
12315;DHT22;23886;46.614;14.276;2023-03-05T08:02:41;0.10;99.90
12315;DHT22;23886;46.614;14.276;2023-03-05T08:05:09;0.30;99.90
12315;DHT22;23886;46.614;14.276;2023-03-05T08:07:37;0.50;99.90
12315;DHT22;23886;46.614;14.276;2023-03-05T08:10:05;0.60;99.90
12315;DHT22;23886;46.614;14.276;2023-03-05T08:12:32;0.80;99.90
12315;DHT22;23886;46.614;14.276;2023-03-05T08:14:59;0.70;99.90
12315;DHT22;23886;46.614;14.276;2023-03-05T08:17:26;0.90;99.90
12315;DHT22;23886;46.614;14.276;2023-03-05T08:19:53;0.70;99.90
12315;DHT22;23886;46.614;14.276;2023-03-05T08:22:22;0.80;99.90
12315;DHT22;23886;46.614;14.276;2023-03-05T08:24:51;0.90;99.90
12315;DHT22;23886;46.614;14.276;2023-03-05T08:27:18;0.80;99.90
12315;DHT22;23886;46.614;14.276;2023-03-05T08:29:45;0.80;99.90
12315;DHT22;23886;46.614;14.276;2023-03-05T08:32:12;1.00;99.90
12315;DHT22;23886;46.614;14.276;2023-03-05T08:34:39;1.00;99.90
12315;DHT22;23886;46.614;14.276;2023-03-05T08:37:06;1.20;99.90
12315;DHT22;23886;46.614;14.276;2023-03-05T08:39:33;1.20;99.90
12315;DHT22;23886;46.614;14.276;2023-03-05T08:42:02;1.40;99.90
12315;DHT22;23886;46.614;14.276;2023-03-05T08:44:30;1.40;99.90
12315;DHT22;23886;46.614;14.276;2023-03-05T08:46:57;1.70;99.90
12315;DHT22;23886;46.614;14.276;2023-03-05T08:49:24;2.00;99.90
12315;DHT22;23886;46.614;14.276;2023-03-05T08:51:51;2.00;99.90
12315;DHT22;23886;46.614;14.276;2023-03-05T08:54:17;2.20;99.90
12315;DHT22;23886;46.614;14.276;2023-03-05T08:56:44;2.20;99.90
12315;DHT22;23886;46.614;14.276;2023-03-05T08:59:13;2.40;99.90
12315;DHT22;23886;46.614;14.276;2023-03-05T09:01:40;2.60;99.90
12315;DHT22;23886;46.614;14.276;2023-03-05T09:04:08;2.80;99.90
12315;DHT22;23886;46.614;14.276;2023-03-05T09:06:35;2.70;99.90
12315;DHT22;23886;46.614;14.276;2023-03-05T09:09:05;2.70;99.90
12315;DHT22;23886;46.614;14.276;2023-03-05T09:11:33;2.90;99.90
12315;DHT22;23886;46.614;14.276;2023-03-05T09:14:01;3.00;99.90
12315;DHT22;23886;46.614;14.276;2023-03-05T09:16:29;3.20;99.90
12315;DHT22;23886;46.614;14.276;2023-03-05T09:18:57;3.40;99.90
12315;DHT22;23886;46.614;14.276;2023-03-05T09:21:24;3.30;99.90
12315;DHT22;23886;46.614;14.276;2023-03-05T09:23:51;3.50;99.90
12315;DHT22;23886;46.614;14.276;2023-03-05T09:26:24;3.70;99.90
12315;DHT22;23886;46.614;14.276;2023-03-05T09:28:51;3.90;99.90
12315;DHT22;23886;46.614;14.276;2023-03-05T09:31:18;4.10;99.90
12315;DHT22;23886;46.614;14.276;2023-03-05T09:33:48;4.10;99.90
12315;DHT22;23886;46.614;14.276;2023-03-05T09:36:18;4.20;99.90
12315;DHT22;23886;46.614;14.276;2023-03-05T09:38:45;4.40;99.90
12315;DHT22;23886;46.614;14.276;2023-03-05T09:41:16;4.40;99.90
12315;DHT22;23886;46.614;14.276;2023-03-05T09:43:52;4.30;99.90
12315;DHT22;23886;46.614;14.276;2023-03-05T09:46:32;4.30;99.90
12315;DHT22;23886;46.614;14.276;2023-03-05T09:49:12;4.30;99.90
12315;DHT22;23886;46.614;14.276;2023-03-05T09:51:41;4.60;99.90
12315;DHT22;23886;46.614;14.276;2023-03-05T09:54:12;4.60;99.90
12315;DHT22;23886;46.614;14.276;2023-03-05T09:56:43;4.80;99.90
12315;DHT22;23886;46.614;14.276;2023-03-05T09:59:19;4.90;99.90
12315;DHT22;23886;46.614;14.276;2023-03-05T10:01:48;5.00;99.90
12315;DHT22;23886;46.614;14.276;2023-03-05T10:04:20;4.80;99.90
12315;DHT22;23886;46.614;14.276;2023-03-05T10:06:54;4.60;99.90
12315;DHT22;23886;46.614;14.276;2023-03-05T10:09:37;4.60;99.90
12315;DHT22;23886;46.614;14.276;2023-03-05T10:12:15;4.80;99.90
12315;DHT22;23886;46.614;14.276;2023-03-05T10:14:44;4.70;99.90
12315;DHT22;23886;46.614;14.276;2023-03-05T10:17:41;4.70;99.90
12315;DHT22;23886;46.614;14.276;2023-03-05T10:20:36;4.90;99.90
12315;DHT22;23886;46.614;14.276;2023-03-05T10:23:20;5.10;99.90
12315;DHT22;23886;46.614;14.276;2023-03-05T10:26:04;5.40;99.90
12315;DHT22;23886;46.614;14.276;2023-03-05T10:28:38;5.60;99.90
12315;DHT22;23886;46.614;14.276;2023-03-05T10:31:19;5.80;99.90
12315;DHT22;23886;46.614;14.276;2023-03-05T10:34:00;5.90;99.90
12315;DHT22;23886;46.614;14.276;2023-03-05T10:36:50;6.10;99.90
12315;DHT22;23886;46.614;14.276;2023-03-05T10:42:27;6.00;99.90
12315;DHT22;23886;46.614;14.276;2023-03-05T10:44:58;6.20;99.90
12315;DHT22;23886;46.614;14.276;2023-03-05T10:47:29;6.70;99.90
12315;DHT22;23886;46.614;14.276;2023-03-05T10:49:57;6.90;99.90
12315;DHT22;23886;46.614;14.276;2023-03-05T10:52:30;6.80;99.90
12315;DHT22;23886;46.614;14.276;2023-03-05T10:55:00;6.90;99.90
12315;DHT22;23886;46.614;14.276;2023-03-05T10:57:29;6.90;99.90
12315;DHT22;23886;46.614;14.276;2023-03-05T11:00:00;7.10;99.90
12315;DHT22;23886;46.614;14.276;2023-03-05T11:02:27;7.10;99.90
12315;DHT22;23886;46.614;14.276;2023-03-05T11:04:54;7.00;99.90
12315;DHT22;23886;46.614;14.276;2023-03-05T11:07:34;7.20;99.90
12315;DHT22;23886;46.614;14.276;2023-03-05T11:10:09;7.30;99.90
12315;DHT22;23886;46.614;14.276;2023-03-05T11:12:40;7.70;99.90
12315;DHT22;23886;46.614;14.276;2023-03-05T11:15:23;7.80;99.90
12315;DHT22;23886;46.614;14.276;2023-03-05T11:18:05;7.40;99.90
12315;DHT22;23886;46.614;14.276;2023-03-05T11:20:34;7.60;99.90
12315;DHT22;23886;46.614;14.276;2023-03-05T11:23:10;7.40;99.90
12315;DHT22;23886;46.614;14.276;2023-03-05T11:25:55;7.60;99.90
12315;DHT22;23886;46.614;14.276;2023-03-05T11:28:25;7.50;99.90
12315;DHT22;23886;46.614;14.276;2023-03-05T11:30:58;7.20;99.90
12315;DHT22;23886;46.614;14.276;2023-03-05T11:33:26;7.40;99.90
12315;DHT22;23886;46.614;14.276;2023-03-05T11:36:10;7.40;99.90
12315;DHT22;23886;46.614;14.276;2023-03-05T11:38:46;7.50;99.90
12315;DHT22;23886;46.614;14.276;2023-03-05T11:41:18;7.90;99.90
12315;DHT22;23886;46.614;14.276;2023-03-05T11:43:47;7.80;99.90
12315;DHT22;23886;46.614;14.276;2023-03-05T11:46:15;7.80;99.90
12315;DHT22;23886;46.614;14.276;2023-03-05T11:48:44;7.90;99.90
12315;DHT22;23886;46.614;14.276;2023-03-05T11:51:17;7.70;99.70
12315;DHT22;23886;46.614;14.276;2023-03-05T11:53:48;8.00;99.90
12315;DHT22;23886;46.614;14.276;2023-03-05T11:56:20;8.20;99.80
12315;DHT22;23886;46.614;14.276;2023-03-05T11:58:57;8.40;99.00
12315;DHT22;23886;46.614;14.276;2023-03-05T12:01:28;8.60;98.10
12315;DHT22;23886;46.614;14.276;2023-03-05T12:03:57;8.80;98.80
12315;DHT22;23886;46.614;14.276;2023-03-05T12:06:28;9.00;97.70
12315;DHT22;23886;46.614;14.276;2023-03-05T12:09:01;8.80;97.40
12315;DHT22;23886;46.614;14.276;2023-03-05T12:11:30;9.00;97.00
12315;DHT22;23886;46.614;14.276;2023-03-05T12:14:03;8.80;97.90
12315;DHT22;23886;46.614;14.276;2023-03-05T12:16:35;9.00;97.60
12315;DHT22;23886;46.614;14.276;2023-03-05T12:19:22;9.00;98.30
12315;DHT22;23886;46.614;14.276;2023-03-05T12:21:56;9.30;97.60
12315;DHT22;23886;46.614;14.276;2023-03-05T12:24:37;9.40;96.80
12315;DHT22;23886;46.614;14.276;2023-03-05T12:27:11;9.50;96.90
12315;DHT22;23886;46.614;14.276;2023-03-05T12:29:47;9.10;97.50
12315;DHT22;23886;46.614;14.276;2023-03-05T12:35:36;9.40;96.90
12315;DHT22;23886;46.614;14.276;2023-03-05T12:38:27;9.50;97.30
12315;DHT22;23886;46.614;14.276;2023-03-05T12:44:19;9.20;97.30
12315;DHT22;23886;46.614;14.276;2023-03-05T12:47:19;9.60;96.70
12315;DHT22;23886;46.614;14.276;2023-03-05T12:49:48;9.90;95.90
12315;DHT22;23886;46.614;14.276;2023-03-05T12:52:25;10.00;95.50
12315;DHT22;23886;46.614;14.276;2023-03-05T12:55:20;10.00;95.60
12315;DHT22;23886;46.614;14.276;2023-03-05T12:57:52;9.80;96.10
12315;DHT22;23886;46.614;14.276;2023-03-05T13:00:26;10.20;94.70
12315;DHT22;23886;46.614;14.276;2023-03-05T13:03:01;10.20;95.10
12315;DHT22;23886;46.614;14.276;2023-03-05T13:05:31;10.00;94.40
12315;DHT22;23886;46.614;14.276;2023-03-05T13:08:14;10.10;94.40
12315;DHT22;23886;46.614;14.276;2023-03-05T13:10:50;10.30;93.60
12315;DHT22;23886;46.614;14.276;2023-03-05T13:13:18;10.40;94.20
12315;DHT22;23886;46.614;14.276;2023-03-05T13:15:48;10.80;94.70
12315;DHT22;23886;46.614;14.276;2023-03-05T13:18:19;11.30;92.90
12315;DHT22;23886;46.614;14.276;2023-03-05T13:20:46;11.20;91.20
12315;DHT22;23886;46.614;14.276;2023-03-05T13:23:19;11.20;92.50
12315;DHT22;23886;46.614;14.276;2023-03-05T13:26:01;11.30;92.20
12315;DHT22;23886;46.614;14.276;2023-03-05T13:28:29;11.10;92.80
12315;DHT22;23886;46.614;14.276;2023-03-05T13:30:59;10.90;91.60
12315;DHT22;23886;46.614;14.276;2023-03-05T13:33:29;11.30;92.20
12315;DHT22;23886;46.614;14.276;2023-03-05T13:35:56;11.80;91.30
12315;DHT22;23886;46.614;14.276;2023-03-05T13:38:28;12.10;90.20
12315;DHT22;23886;46.614;14.276;2023-03-05T13:41:05;12.40;88.70
12315;DHT22;23886;46.614;14.276;2023-03-05T13:43:33;12.70;86.60
12315;DHT22;23886;46.614;14.276;2023-03-05T13:46:01;12.80;86.70
12315;DHT22;23886;46.614;14.276;2023-03-05T13:48:28;12.80;84.00
12315;DHT22;23886;46.614;14.276;2023-03-05T13:50:56;12.40;86.30
12315;DHT22;23886;46.614;14.276;2023-03-05T13:53:25;13.00;86.00
12315;DHT22;23886;46.614;14.276;2023-03-05T13:55:55;14.50;81.90
12315;DHT22;23886;46.614;14.276;2023-03-05T13:58:46;13.70;82.70
12315;DHT22;23886;46.614;14.276;2023-03-05T14:01:25;14.00;81.40
12315;DHT22;23886;46.614;14.276;2023-03-05T14:03:54;13.90;82.50
12315;DHT22;23886;46.614;14.276;2023-03-05T14:06:24;13.60;84.70
12315;DHT22;23886;46.614;14.276;2023-03-05T14:08:57;13.60;85.20
12315;DHT22;23886;46.614;14.276;2023-03-05T14:11:25;14.30;83.10
12315;DHT22;23886;46.614;14.276;2023-03-05T14:13:59;14.10;83.40
12315;DHT22;23886;46.614;14.276;2023-03-05T14:16:29;13.90;83.60
12315;DHT22;23886;46.614;14.276;2023-03-05T14:19:00;14.50;80.50
12315;DHT22;23886;46.614;14.276;2023-03-05T14:21:45;14.10;82.40
12315;DHT22;23886;46.614;14.276;2023-03-05T14:24:17;13.70;84.00
12315;DHT22;23886;46.614;14.276;2023-03-05T14:26:48;13.90;85.60
12315;DHT22;23886;46.614;14.276;2023-03-05T14:29:17;13.80;83.50
12315;DHT22;23886;46.614;14.276;2023-03-05T14:31:49;14.40;82.90
12315;DHT22;23886;46.614;14.276;2023-03-05T14:34:23;14.20;84.00
12315;DHT22;23886;46.614;14.276;2023-03-05T14:36:53;15.00;82.50
12315;DHT22;23886;46.614;14.276;2023-03-05T14:39:30;14.10;82.90
12315;DHT22;23886;46.614;14.276;2023-03-05T14:42:31;13.40;85.10
12315;DHT22;23886;46.614;14.276;2023-03-05T14:45:00;13.60;86.80
12315;DHT22;23886;46.614;14.276;2023-03-05T14:47:28;13.90;84.20
12315;DHT22;23886;46.614;14.276;2023-03-05T14:49:55;14.50;82.40
12315;DHT22;23886;46.614;14.276;2023-03-05T14:52:23;14.10;83.60
12315;DHT22;23886;46.614;14.276;2023-03-05T14:54:51;15.30;80.60
12315;DHT22;23886;46.614;14.276;2023-03-05T14:57:22;15.20;80.50
12315;DHT22;23886;46.614;14.276;2023-03-05T14:59:49;14.10;83.50
12315;DHT22;23886;46.614;14.276;2023-03-05T15:02:17;14.00;83.10
12315;DHT22;23886;46.614;14.276;2023-03-05T15:04:46;13.80;84.10
12315;DHT22;23886;46.614;14.276;2023-03-05T15:07:16;14.40;84.10
12315;DHT22;23886;46.614;14.276;2023-03-05T15:09:44;14.60;81.50
12315;DHT22;23886;46.614;14.276;2023-03-05T15:12:12;13.80;82.70
12315;DHT22;23886;46.614;14.276;2023-03-05T15:14:40;14.40;82.10
12315;DHT22;23886;46.614;14.276;2023-03-05T15:17:19;14.60;80.70
12315;DHT22;23886;46.614;14.276;2023-03-05T15:19:48;13.50;82.20
12315;DHT22;23886;46.614;14.276;2023-03-05T15:22:15;13.40;85.60
12315;DHT22;23886;46.614;14.276;2023-03-05T15:24:43;13.30;84.10
12315;DHT22;23886;46.614;14.276;2023-03-05T15:27:10;13.80;82.90
12315;DHT22;23886;46.614;14.276;2023-03-05T15:29:39;13.40;83.60
12315;DHT22;23886;46.614;14.276;2023-03-05T15:32:06;13.30;84.10
12315;DHT22;23886;46.614;14.276;2023-03-05T15:34:33;13.10;84.90
12315;DHT22;23886;46.614;14.276;2023-03-05T15:37:02;12.60;86.30
12315;DHT22;23886;46.614;14.276;2023-03-05T15:39:29;12.30;87.10
12315;DHT22;23886;46.614;14.276;2023-03-05T15:41:56;12.10;87.90
12315;DHT22;23886;46.614;14.276;2023-03-05T15:44:23;12.40;87.20
12315;DHT22;23886;46.614;14.276;2023-03-05T15:46:51;11.90;86.90
12315;DHT22;23886;46.614;14.276;2023-03-05T15:49:18;11.50;88.40